sensor_id;sensor_type;location;lat;lon;timestamp;pressure;altitude;pressure_sealevel;temperature;humidity
31162;BME280;17796;49.296;-117.656;2023-01-15T00:03:32;95000;;;1.80832;82.95925
31162;BME280;17796;49.296;-117.656;2023-01-15T00:18:36;95000;;;1.67304;87.46296
31162;BME280;17796;49.296;-117.656;2023-01-15T00:33:40;95000;;;0.96137;91.68266
31162;BME280;17796;49.296;-117.656;2023-01-15T00:48:44;95000;;;1.39008;91.24604
31162;BME280;17796;49.296;-117.656;2023-01-15T01:03:47;95000;;;1.44724;90.48369
31162;BME280;17796;49.296;-117.656;2023-01-15T01:18:53;94900;;;1.85659;85.16496
31162;BME280;17796;49.296;-117.656;2023-01-15T01:33:57;94900;;;1.69812;85.04337
31162;BME280;17796;49.296;-117.656;2023-01-15T01:49:03;94900;;;1.1065;86.22286
31162;BME280;17796;49.296;-117.656;2023-01-15T02:04:11;94900;;;2.46791;80.6156
31162;BME280;17796;49.296;-117.656;2023-01-15T02:19:18;94900;;;2.13573;83.50905
31162;BME280;17796;49.296;-117.656;2023-01-15T02:34:31;94900;;;2.40948;79.89637
31162;BME280;17796;49.296;-117.656;2023-01-15T02:49:36;94900;;;1.64699;84.15147
31162;BME280;17796;49.296;-117.656;2023-01-15T03:04:43;94900;;;2.04173;80.53987
31162;BME280;17796;49.296;-117.656;2023-01-15T03:19:55;94900;;;2.0014;81.76897
31162;BME280;17796;49.296;-117.656;2023-01-15T03:35:06;94900;;;1.79784;82.75555
31162;BME280;17796;49.296;-117.656;2023-01-15T03:50:45;94900;;;2.01093;81.72612
31162;BME280;17796;49.296;-117.656;2023-01-15T04:05:56;94900;;;1.74766;83.3141
31162;BME280;17796;49.296;-117.656;2023-01-15T04:21:02;94900;;;1.97758;80.59371
31162;BME280;17796;49.296;-117.656;2023-01-15T04:36:06;94800;;;1.14048;85.8772
31162;BME280;17796;49.296;-117.656;2023-01-15T04:51:11;94800;;;1.76291;82.10574
31162;BME280;17796;49.296;-117.656;2023-01-15T05:06:14;94800;;;1.88231;81.59778
31162;BME280;17796;49.296;-117.656;2023-01-15T05:21:21;94800;;;0.78512;85.85869
31162;BME280;17796;49.296;-117.656;2023-01-15T05:36:27;94800;;;1.57967;82.16872
31162;BME280;17796;49.296;-117.656;2023-01-15T05:51:32;94800;;;1.16143;83.59013
31162;BME280;17796;49.296;-117.656;2023-01-15T06:06:37;94800;;;0.91405;85.88425
31162;BME280;17796;49.296;-117.656;2023-01-15T06:21:41;94800;;;1.34404;83.39114
31162;BME280;17796;49.296;-117.656;2023-01-15T06:36:45;94800;;;1.04679;86.48357
31162;BME280;17796;49.296;-117.656;2023-01-15T06:51:49;94800;;;1.15794;86.07035
31162;BME280;17796;49.296;-117.656;2023-01-15T07:06:52;94800;;;1.66002;81.95813
31162;BME280;17796;49.296;-117.656;2023-01-15T07:21:56;94800;;;1.8731;81.35578
31162;BME280;17796;49.296;-117.656;2023-01-15T07:37:00;94800;;;1.89692;80.5253
31162;BME280;17796;49.296;-117.656;2023-01-15T07:52:04;94700;;;2.04491;80.75399
31162;BME280;17796;49.296;-117.656;2023-01-15T08:07:08;94700;;;1.94678;80.78792
31162;BME280;17796;49.296;-117.656;2023-01-15T08:22:14;94700;;;1.89216;79.61496
31162;BME280;17796;49.296;-117.656;2023-01-15T08:37:18;94700;;;1.56474;80.89708
31162;BME280;17796;49.296;-117.656;2023-01-15T08:52:22;94700;;;1.573;81.23739
31162;BME280;17796;49.296;-117.656;2023-01-15T09:07:25;94700;;;0.81306;84.88478
31162;BME280;17796;49.296;-117.656;2023-01-15T09:22:29;94700;;;1.3326;82.14287
31162;BME280;17796;49.296;-117.656;2023-01-15T09:37:33;94700;;;1.25416;84.17963
31162;BME280;17796;49.296;-117.656;2023-01-15T09:52:42;94700;;;1.73274;82.30519
31162;BME280;17796;49.296;-117.656;2023-01-15T10:08:00;94700;;;2.00585;79.93321
31162;BME280;17796;49.296;-117.656;2023-01-15T10:23:18;94700;;;1.41644;82.1407
31162;BME280;17796;49.296;-117.656;2023-01-15T10:38:38;94700;;;1.85246;80.80029
31162;BME280;17796;49.296;-117.656;2023-01-15T10:53:51;94700;;;1.56093;80.48601
31162;BME280;17796;49.296;-117.656;2023-01-15T11:09:00;94700;;;1.42819;81.92853
31162;BME280;17796;49.296;-117.656;2023-01-15T11:24:04;94700;;;1.61365;80.48584
31162;BME280;17796;49.296;-117.656;2023-01-15T11:39:21;94700;;;1.41485;81.46746
31162;BME280;17796;49.296;-117.656;2023-01-15T11:54:26;94700;;;1.30402;80.91981
31162;BME280;17796;49.296;-117.656;2023-01-15T12:09:37;94700;;;1.74354;80.26881
31162;BME280;17796;49.296;-117.656;2023-01-15T12:25:06;94700;;;0.7902;82.62142
31162;BME280;17796;49.296;-117.656;2023-01-15T12:40:22;94600;;;1.19065;81.42793
31162;BME280;17796;49.296;-117.656;2023-01-15T12:55:30;94600;;;0.34053;86.06434
31162;BME280;17796;49.296;-117.656;2023-01-15T13:10:39;94700;;;1.03981;83.21631
31162;BME280;17796;49.296;-117.656;2023-01-15T13:25:47;94700;;;1.04171;82.83394
31162;BME280;17796;49.296;-117.656;2023-01-15T13:41:04;94700;;;1.00265;82.26135
31162;BME280;17796;49.296;-117.656;2023-01-15T13:56:11;94700;;;1.00614;82.7591
31162;BME280;17796;49.296;-117.656;2023-01-15T14:11:30;94700;;;1.16461;81.33773
31162;BME280;17796;49.296;-117.656;2023-01-15T14:26:41;94700;;;0.98519;81.90968
31162;BME280;17796;49.296;-117.656;2023-01-15T14:41:58;94700;;;0.47264;84.61227
31162;BME280;17796;49.296;-117.656;2023-01-15T14:57:06;94700;;;1.02615;81.17037
31162;BME280;17796;49.296;-117.656;2023-01-15T15:12:16;94600;;;0.97185;81.4983
31162;BME280;17796;49.296;-117.656;2023-01-15T15:27:27;94600;;;0.89944;81.95539
31162;BME280;17796;49.296;-117.656;2023-01-15T15:42:31;94700;;;1.55299;79.76229
31162;BME280;17796;49.296;-117.656;2023-01-15T15:57:38;94700;;;1.18366;80.69418
31162;BME280;17796;49.296;-117.656;2023-01-15T16:12:43;94700;;;1.48948;80.10099
31162;BME280;17796;49.296;-117.656;2023-01-15T16:27:50;94700;;;0.40341;84.57186
31162;BME280;17796;49.296;-117.656;2023-01-15T16:43:02;94700;;;1.48916;81.27259
31162;BME280;17796;49.296;-117.656;2023-01-15T16:58:18;94700;;;1.51616;80.47054
31162;BME280;17796;49.296;-117.656;2023-01-15T17:13:30;94700;;;1.76545;80.10114
31162;BME280;17796;49.296;-117.656;2023-01-15T17:28:36;94700;;;1.52822;80.98097
31162;BME280;17796;49.296;-117.656;2023-01-15T17:43:39;94700;;;1.06553;83.48686
31162;BME280;17796;49.296;-117.656;2023-01-15T17:58:43;94700;;;1.69844;83.25957
31162;BME280;17796;49.296;-117.656;2023-01-15T18:13:47;94700;;;2.04904;81.16005
31162;BME280;17796;49.296;-117.656;2023-01-15T18:28:51;94700;;;2.52222;78.78747
31162;BME280;17796;49.296;-117.656;2023-01-15T18:43:56;94700;;;1.62445;82.92329
31162;BME280;17796;49.296;-117.656;2023-01-15T18:58:59;94700;;;2.0465;81.87228
31162;BME280;17796;49.296;-117.656;2023-01-15T19:14:03;94700;;;2.84392;78.67002
31162;BME280;17796;49.296;-117.656;2023-01-15T19:29:07;94700;;;2.47204;81.18668
31162;BME280;17796;49.296;-117.656;2023-01-15T19:44:10;94700;;;2.40599;82.28792
31162;BME280;17796;49.296;-117.656;2023-01-15T19:59:14;94700;;;2.82613;79.96497
31162;BME280;17796;49.296;-117.656;2023-01-15T20:14:18;94700;;;2.76929;80.88747
31162;BME280;17796;49.296;-117.656;2023-01-15T20:29:21;94700;;;3.26883;79.24971
31162;BME280;17796;49.296;-117.656;2023-01-15T20:44:25;94700;;;2.84296;81.32873
31162;BME280;17796;49.296;-117.656;2023-01-15T20:59:29;94700;;;2.97158;79.61114
31162;BME280;17796;49.296;-117.656;2023-01-15T21:14:32;94700;;;3.25835;78.40709
31162;BME280;17796;49.296;-117.656;2023-01-15T21:29:36;94700;;;3.14498;78.75931
31162;BME280;17796;49.296;-117.656;2023-01-15T21:44:40;94700;;;3.45175;78.58503
31162;BME280;17796;49.296;-117.656;2023-01-15T21:59:44;94700;;;3.05637;80.70211
31162;BME280;17796;49.296;-117.656;2023-01-15T22:14:47;94700;;;2.93538;80.71745
31162;BME280;17796;49.296;-117.656;2023-01-15T22:29:51;94700;;;2.9719;80.68266
31162;BME280;17796;49.296;-117.656;2023-01-15T22:44:55;94700;;;2.86837;81.85847
31162;BME280;17796;49.296;-117.656;2023-01-15T22:59:59;94700;;;2.00426;85.8218
31162;BME280;17796;49.296;-117.656;2023-01-15T23:15:03;94700;;;2.28563;85.03192
31162;BME280;17796;49.296;-117.656;2023-01-15T23:30:08;94700;;;2.76198;81.8969
31162;BME280;17796;49.296;-117.656;2023-01-15T23:45:13;94800;;;2.91188;82.07161
